Time;durP1;ratioP1;P1;durP2;ratioP2;P2;SDS_P1;SDS_P2;PMS_P1;PMS_P2;Temp;Humidity;BMP_temperature;BMP_pressure;BME280_temperature;BME280_humidity;BME280_pressure;Samples;Min_cycle;Max_cycle;Signal;HPM_P1;HPM_P2
2022/06/07 00:01:07;;;;;;;2.37;1.10;;;;;;;14.64;85.05;99954.94;5026267;28;20221;-62
2022/06/07 00:03:32;;;;;;;1.00;0.70;;;;;;;14.48;86.35;99963.81;5041237;28;20194;-60
2022/06/07 00:05:58;;;;;;;1.63;1.10;;;;;;;14.55;86.46;99964.22;5034136;28;20272;-61
2022/06/07 00:08:23;;;;;;;0.90;0.90;;;;;;;14.67;85.13;99958.16;5033811;28;20653;-61
2022/06/07 00:10:49;;;;;;;7.10;1.17;;;;;;;14.62;85.12;99961.97;5030071;28;20225;-61
2022/06/07 00:13:17;;;;;;;3.50;1.10;;;;;;;14.59;85.42;99962.22;5046352;28;20184;-60
2022/06/07 00:15:44;;;;;;;1.40;1.23;;;;;;;14.68;85.16;99961.56;5052616;28;20177;-60
2022/06/07 00:18:11;;;;;;;1.10;1.00;;;;;;;14.64;85.13;99958.34;5052107;28;20336;-60
2022/06/07 00:20:37;;;;;;;2.77;2.10;;;;;;;14.65;85.17;99964.41;5048258;28;20303;-62
2022/06/07 00:23:09;;;;;;;1.10;1.00;;;;;;;14.46;86.54;99957.94;5052338;28;20190;-61
2022/06/07 00:25:34;;;;;;;5.37;1.40;;;;;;;14.34;88.09;99954.47;5052049;28;20181;-60
2022/06/07 00:28:00;;;;;;;3.43;1.20;;;;;;;14.28;88.93;99954.13;5053700;28;20173;-62
2022/06/07 00:30:26;;;;;;;1.57;0.90;;;;;;;14.25;89.31;99954.31;5024601;28;20702;-61
2022/06/07 00:32:53;;;;;;;0.87;0.87;;;;;;;14.32;89.18;99950.34;5039626;28;20182;-62
2022/06/07 00:35:19;;;;;;;0.97;0.90;;;;;;;14.32;88.16;99951.16;5052461;28;20231;-62
2022/06/07 00:37:44;;;;;;;0.80;0.80;;;;;;;14.40;87.63;99950.63;5053095;28;20174;-59
2022/06/07 00:40:11;;;;;;;1.87;0.80;;;;;;;14.49;86.55;99949.13;5038936;28;20174;-61
2022/06/07 00:42:36;;;;;;;2.77;1.00;;;;;;;14.52;85.35;99949.72;5044487;28;20201;-62
2022/06/07 00:45:02;;;;;;;1.37;0.90;;;;;;;14.63;84.54;99945.53;5053582;28;20558;-62
2022/06/07 00:47:31;;;;;;;2.57;1.30;;;;;;;14.72;83.77;99949.22;5038958;28;20182;-61
2022/06/07 00:50:04;;;;;;;1.40;1.03;;;;;;;14.79;83.61;99951.22;5041888;28;20182;-62
2022/06/07 00:52:33;;;;;;;1.07;0.93;;;;;;;14.88;83.30;99949.72;5025098;28;20228;-61
2022/06/07 00:54:59;;;;;;;1.00;1.00;;;;;;;15.01;82.42;99952.22;5052221;28;20165;-61
2022/06/07 00:57:25;;;;;;;1.53;1.23;;;;;;;15.07;82.18;99948.31;5051406;28;20177;-60
2022/06/07 00:59:53;;;;;;;2.43;1.00;;;;;;;15.06;83.02;99949.25;5053157;28;20173;-60
2022/06/07 01:02:19;;;;;;;0.90;0.90;;;;;;;15.14;82.83;99950.34;5026077;28;20229;-60
2022/06/07 01:04:45;;;;;;;1.00;0.80;;;;;;;15.25;82.11;99946.09;5051830;28;20300;-60
2022/06/07 01:12:38;;;;;;;1.10;1.00;;;;;;;15.25;81.58;99948.69;5033245;28;20293;-60
2022/06/07 01:15:07;;;;;;;1.03;0.83;;;;;;;15.26;81.19;99940.00;5052885;28;20191;-59
2022/06/07 01:17:32;;;;;;;1.40;1.23;;;;;;;15.33;81.47;99941.16;5050924;28;20316;-59
2022/06/07 01:19:57;;;;;;;0.97;0.97;;;;;;;15.33;81.42;99943.72;5052659;28;20256;-61
2022/06/07 01:22:23;;;;;;;1.27;1.10;;;;;;;15.35;81.15;99939.28;5041711;28;20221;-61
2022/06/07 01:24:49;;;;;;;3.33;1.10;;;;;;;15.35;81.05;99935.88;5051031;28;20564;-61
2022/06/07 01:27:15;;;;;;;1.20;1.03;;;;;;;15.37;80.62;99936.56;5050611;28;20209;-61
2022/06/07 01:29:42;;;;;;;2.40;1.27;;;;;;;15.44;80.99;99935.13;5052231;28;20371;-59
2022/06/07 01:32:09;;;;;;;1.40;1.10;;;;;;;15.41;80.91;99940.56;5026843;28;20582;-60
2022/06/07 01:34:34;;;;;;;1.30;0.97;;;;;;;15.47;80.81;99940.09;5050903;28;20181;-59
2022/06/07 01:37:01;;;;;;;2.30;0.90;;;;;;;15.51;80.55;99931.13;5052113;28;20185;-61
2022/06/07 01:42:12;;;;;;;3.00;1.23;;;;;;;15.46;80.53;99931.47;5041127;28;20236;-61
2022/06/07 01:44:41;;;;;;;2.00;0.90;;;;;;;15.42;79.91;99937.03;5036605;28;20657;-60
2022/06/07 01:47:13;;;;;;;1.43;1.33;;;;;;;15.41;80.25;99935.38;5031754;28;20260;-60
2022/06/07 01:49:39;;;;;;;2.17;1.00;;;;;;;15.52;79.03;99939.72;5029788;28;20269;-61
2022/06/07 01:52:06;;;;;;;0.97;0.93;;;;;;;15.50;79.62;99929.47;5023755;28;20233;-61
2022/06/07 01:54:32;;;;;;;1.03;0.90;;;;;;;15.45;79.19;99931.59;5032348;28;20174;-60
2022/06/07 01:56:57;;;;;;;1.47;1.10;;;;;;;15.47;80.05;99935.72;5032134;28;20174;-61
2022/06/07 01:59:22;;;;;;;2.43;1.10;;;;;;;15.48;79.12;99924.41;5032146;28;20182;-60
2022/06/07 02:01:49;;;;;;;0.83;0.80;;;;;;;15.45;78.22;99922.06;5035368;28;20298;-62
2022/06/07 02:04:15;;;;;;;1.13;0.80;;;;;;;15.51;78.43;99925.94;5030894;28;20260;-60
2022/06/07 02:06:41;;;;;;;3.10;0.93;;;;;;;15.49;77.53;99918.28;5030461;28;20178;-61
2022/06/07 02:09:08;;;;;;;1.80;1.17;;;;;;;15.51;77.64;99919.94;5049598;28;20637;-59
2022/06/07 02:11:35;;;;;;;1.30;0.93;;;;;;;15.49;77.58;99918.28;5053449;28;20651;-62
2022/06/07 02:14:00;;;;;;;2.40;1.00;;;;;;;15.46;78.03;99909.94;5050266;28;20193;-61
2022/06/07 02:16:25;;;;;;;0.83;0.73;;;;;;;15.51;77.44;99912.16;5051508;28;20565;-61
2022/06/07 02:18:51;;;;;;;1.07;0.90;;;;;;;15.55;77.03;99916.16;5052064;28;20528;-61
2022/06/07 02:21:19;;;;;;;1.03;0.80;;;;;;;15.57;76.62;99915.09;5040965;28;20224;-59
2022/06/07 02:23:45;;;;;;;1.63;0.83;;;;;;;15.56;76.18;99910.03;5044091;28;20296;-60
2022/06/07 02:26:17;;;;;;;1.73;0.90;;;;;;;15.59;76.18;99912.38;5051076;28;20315;-60
2022/06/07 02:28:48;;;;;;;0.80;0.80;;;;;;;15.58;75.71;99915.91;5050182;28;20173;-60
2022/06/07 02:31:15;;;;;;;2.13;1.10;;;;;;;15.47;76.30;99907.22;5033300;28;20347;-60
2022/06/07 02:33:41;;;;;;;1.00;0.90;;;;;;;15.37;76.75;99908.03;5050812;28;20173;-61
2022/06/07 02:36:08;;;;;;;4.70;1.17;;;;;;;15.31;76.80;99917.94;5049662;28;20181;-61
2022/06/07 02:38:35;;;;;;;0.93;0.77;;;;;;;15.20;77.19;99917.94;5050364;28;20213;-62
2022/06/07 02:41:05;;;;;;;1.57;0.93;;;;;;;15.11;77.88;99905.72;5040316;28;20228;-60
2022/06/07 02:43:31;;;;;;;0.93;0.80;;;;;;;14.97;79.89;99911.94;5037210;28;20351;-59
2022/06/07 02:45:58;;;;;;;1.00;0.90;;;;;;;14.89;79.86;99909.94;5031586;28;20202;-65
2022/06/07 02:48:23;;;;;;;1.53;0.90;;;;;;;14.89;80.06;99904.75;5031602;28;20178;-60
2022/06/07 02:50:49;;;;;;;3.03;0.90;;;;;;;14.82;80.47;99917.34;5023408;28;20233;-59
2022/06/07 02:53:14;;;;;;;1.17;1.07;;;;;;;14.76;80.57;99909.19;5041421;28;20178;-62
2022/06/07 02:55:40;;;;;;;0.90;0.90;;;;;;;14.66;81.04;99904.72;5035216;28;20192;-63
2022/06/07 02:58:05;;;;;;;0.93;0.93;;;;;;;14.66;81.32;99909.06;5033902;28;20556;-61
2022/06/07 03:00:31;;;;;;;1.10;0.97;;;;;;;14.63;82.24;99904.91;5015096;28;20696;-61
2022/06/07 03:02:56;;;;;;;1.83;1.10;;;;;;;14.59;82.57;99905.28;5034489;28;20260;-61
2022/06/07 03:05:23;;;;;;;0.90;0.90;;;;;;;14.43;83.69;99908.19;5041515;28;20626;-62
2022/06/07 03:07:48;;;;;;;1.30;1.20;;;;;;;14.49;83.22;99897.38;5053076;28;20677;-60
2022/06/07 03:10:14;;;;;;;0.93;0.83;;;;;;;14.46;83.61;99902.75;5046308;28;20260;-60
2022/06/07 03:12:39;;;;;;;1.37;1.00;;;;;;;14.35;84.15;99896.63;5068879;28;20621;-61
2022/06/07 03:15:06;;;;;;;1.30;1.13;;;;;;;14.33;84.91;99902.84;5044711;28;20230;-62
2022/06/07 03:17:31;;;;;;;1.33;1.23;;;;;;;14.38;84.89;99905.09;5036727;28;20382;-61
2022/06/07 03:19:57;;;;;;;1.77;1.10;;;;;;;14.32;86.09;99902.00;5055160;28;20690;-61
2022/06/07 03:22:23;;;;;;;1.60;1.20;;;;;;;14.29;86.82;99901.41;5043817;28;20300;-60
2022/06/07 03:24:48;;;;;;;1.37;1.20;;;;;;;14.34;86.80;99899.34;5053333;28;20323;-61
2022/06/07 03:27:14;;;;;;;1.43;1.00;;;;;;;14.35;86.96;99896.63;5053359;28;20173;-59
2022/06/07 03:29:40;;;;;;;2.77;1.47;;;;;;;14.41;86.59;99910.03;5053585;28;20227;-61
2022/06/07 03:32:06;;;;;;;1.97;1.10;;;;;;;14.37;86.97;99904.25;5006188;28;20719;-63
2022/06/07 03:34:33;;;;;;;3.47;1.20;;;;;;;14.38;86.76;99905.91;5053561;28;20285;-61
2022/06/07 03:36:58;;;;;;;1.30;1.20;;;;;;;14.39;86.77;99907.56;5052789;28;20200;-61
2022/06/07 03:39:24;;;;;;;1.47;1.30;;;;;;;14.31;86.76;99912.47;5054620;28;20214;-61
2022/06/07 03:41:49;;;;;;;1.60;0.97;;;;;;;14.05;87.96;99912.59;5043203;28;20620;-62
2022/06/07 03:44:14;;;;;;;1.57;1.00;;;;;;;14.08;88.45;99912.41;5043624;28;20747;-61
2022/06/07 03:46:42;;;;;;;1.50;1.07;;;;;;;14.08;88.55;99917.56;5032845;28;20202;-61
2022/06/07 03:49:08;;;;;;;1.40;0.97;;;;;;;14.02;88.51;99911.06;5033302;28;20200;-61
2022/06/07 03:51:34;;;;;;;3.03;1.30;;;;;;;14.07;88.62;99915.09;5036116;28;20700;-59
2022/06/07 03:53:59;;;;;;;2.33;1.23;;;;;;;14.09;89.07;99916.63;5033018;28;20609;-62
2022/06/07 03:56:25;;;;;;;1.70;0.87;;;;;;;14.16;89.69;99919.59;5033179;28;20257;-61
2022/06/07 03:58:51;;;;;;;2.87;1.00;;;;;;;14.22;89.35;99920.94;5034670;28;20182;-60
2022/06/07 04:01:19;;;;;;;2.63;1.30;;;;;;;14.27;88.54;99918.81;5026126;28;20245;-62
2022/06/07 04:03:47;;;;;;;2.20;1.10;;;;;;;14.32;88.01;99927.88;5053240;28;20211;-61
2022/06/07 04:06:21;;;;;;;1.60;1.00;;;;;;;14.32;87.85;99927.06;5050952;28;20289;-61
2022/06/07 04:08:47;;;;;;;2.40;1.33;;;;;;;14.31;88.06;99915.06;5041006;28;20294;-64
2022/06/07 04:11:14;;;;;;;1.83;1.00;;;;;;;14.24;89.88;99925.06;5062445;28;20307;-65
2022/06/07 04:13:40;;;;;;;1.63;1.17;;;;;;;14.45;89.24;99917.47;5053486;28;20196;-64
2022/06/07 04:16:06;;;;;;;1.00;1.00;;;;;;;14.35;89.45;99916.47;5053582;28;20692;-65
2022/06/07 04:18:32;;;;;;;1.37;1.00;;;;;;;14.45;88.19;99917.47;5053079;28;20231;-65
2022/06/07 04:20:59;;;;;;;1.20;1.10;;;;;;;14.62;87.89;99910.22;5043171;28;20245;-65
2022/06/07 04:23:24;;;;;;;4.40;1.53;;;;;;;14.77;87.79;99919.47;5053285;28;20227;-65
2022/06/07 04:25:49;;;;;;;1.00;1.00;;;;;;;15.00;85.57;99919.47;5053800;28;20264;-64
2022/06/07 04:28:15;;;;;;;5.50;1.30;;;;;;;15.22;83.71;99928.19;5053379;28;20193;-64
2022/06/07 04:30:45;;;;;;;2.23;1.33;;;;;;;15.33;83.03;99917.81;5043477;28;20225;-65
2022/06/07 04:33:11;;;;;;;1.43;1.20;;;;;;;15.68;81.87;99923.78;5053000;28;20648;-63
2022/06/07 04:35:36;;;;;;;1.00;0.90;;;;;;;15.97;78.94;99930.09;5053327;28;20169;-64
2022/06/07 04:38:01;;;;;;;1.00;1.00;;;;;;;16.00;77.05;99930.81;5053492;28;20221;-64
2022/06/07 04:40:27;;;;;;;3.03;1.10;;;;;;;16.01;76.48;99929.88;5043154;28;20221;-64
2022/06/07 04:42:52;;;;;;;1.20;1.10;;;;;;;15.86;77.19;99931.94;5052539;28;20196;-64
2022/06/07 04:45:18;;;;;;;1.10;1.00;;;;;;;15.93;76.30;99933.91;5033983;28;20210;-64
2022/06/07 04:47:45;;;;;;;1.70;1.17;;;;;;;15.85;76.34;99933.72;5032870;28;20609;-65
2022/06/07 04:50:13;;;;;;;1.77;1.00;;;;;;;15.91;76.66;99940.16;5024513;28;20253;-64
2022/06/07 04:52:38;;;;;;;2.10;1.23;;;;;;;16.07;76.49;99947.53;5047356;28;20182;-64
2022/06/07 04:55:04;;;;;;;1.33;1.00;;;;;;;16.31;75.66;99947.34;5033597;28;20257;-64
2022/06/07 04:57:30;;;;;;;2.73;1.27;;;;;;;16.51;76.70;99953.50;5032952;28;20170;-64
2022/06/07 04:59:55;;;;;;;0.90;0.90;;;;;;;16.75;76.56;99953.25;5034261;28;20874;-64
2022/06/07 05:02:21;;;;;;;1.57;0.97;;;;;;;16.86;73.99;99954.16;5032377;28;20229;-64
2022/06/07 05:04:46;;;;;;;2.83;1.00;;;;;;;16.78;73.92;99950.41;5033338;28;20328;-64
2022/06/07 05:07:12;;;;;;;1.37;0.97;;;;;;;16.68;75.01;99954.69;5032891;28;20650;-63
2022/06/07 05:09:37;;;;;;;1.03;0.90;;;;;;;16.49;76.10;99950.19;5032843;28;20182;-63
2022/06/07 05:12:03;;;;;;;2.80;0.90;;;;;;;16.86;74.03;99951.53;5008288;28;20287;-63
2022/06/07 05:14:28;;;;;;;2.93;1.17;;;;;;;16.96;72.88;99952.44;5046859;28;20173;-64
2022/06/07 05:16:54;;;;;;;1.17;0.87;;;;;;;17.06;72.18;99955.09;5051953;28;20237;-64
2022/06/07 05:19:20;;;;;;;0.73;0.73;;;;;;;17.03;71.36;99956.19;5052813;28;20174;-64
2022/06/07 05:21:46;;;;;;;2.63;1.40;;;;;;;17.16;72.21;99958.56;5041567;28;20236;-63
2022/06/07 05:24:12;;;;;;;0.90;0.90;;;;;;;17.42;70.85;99961.53;5052606;28;20296;-64
2022/06/07 05:26:51;;;;;;;2.50;0.90;;;;;;;17.65;69.62;99956.13;5063059;28;20188;-65
2022/06/07 05:29:53;;;;;;;1.63;0.83;;;;;;;17.65;69.05;99965.69;5063521;28;20189;-66
2022/06/07 05:32:19;;;;;;;3.70;0.97;;;;;;;17.95;68.23;99959.66;5029822;28;20259;-64
2022/06/07 05:34:44;;;;;;;1.33;0.83;;;;;;;18.11;66.48;99961.72;5068245;28;20593;-64
2022/06/07 05:37:19;;;;;;;2.63;1.20;;;;;;;18.57;64.24;99955.94;5051425;28;20192;-63
2022/06/07 05:39:45;;;;;;;3.43;1.17;;;;;;;18.67;63.90;99965.38;5049189;28;20178;-64
2022/06/07 05:42:13;;;;;;;1.70;1.00;;;;;;;18.36;66.71;99959.53;5026401;28;20233;-64
2022/06/07 05:44:39;;;;;;;1.03;0.73;;;;;;;18.89;64.50;99960.84;5052686;28;20208;-65
2022/06/07 05:47:06;;;;;;;2.37;1.03;;;;;;;19.26;62.15;99967.03;5051004;28;20177;-66
2022/06/07 05:49:31;;;;;;;1.00;0.90;;;;;;;18.96;61.94;99967.13;5051571;28;20185;-64
2022/06/07 05:51:57;;;;;;;2.40;0.90;;;;;;;19.10;61.45;99968.50;5037699;28;20217;-65
2022/06/07 05:54:23;;;;;;;2.80;0.90;;;;;;;19.24;61.15;99968.97;5051607;28;20173;-64
2022/06/07 05:56:49;;;;;;;2.47;1.97;;;;;;;19.08;60.67;99959.16;5050877;28;20264;-66
2022/06/07 05:59:15;;;;;;;1.03;0.90;;;;;;;19.34;60.31;99970.56;5051215;28;20555;-64
2022/06/07 06:01:40;;;;;;;2.73;1.07;;;;;;;19.67;59.07;99962.31;5040089;28;20217;-64
2022/06/07 06:04:07;;;;;;;1.20;1.10;;;;;;;20.16;57.29;99969.84;5046771;28;20193;-64
2022/06/07 06:06:33;;;;;;;1.00;0.90;;;;;;;20.83;54.26;99966.81;5050859;28;20239;-64
2022/06/07 06:11:44;;;;;;;0.70;0.70;;;;;;;22.39;48.16;99965.72;5031414;28;20232;-63
2022/06/07 06:14:10;;;;;;;2.70;1.10;;;;;;;22.92;47.36;99957.44;5048333;28;20272;-63
2022/06/07 06:16:37;;;;;;;3.40;0.83;;;;;;;24.43;43.66;99958.94;5049115;28;20632;-65
2022/06/07 06:19:02;;;;;;;0.93;0.80;;;;;;;24.84;41.39;99960.41;5049470;28;20169;-58
2022/06/07 06:21:33;;;;;;;1.50;0.90;;;;;;;24.34;41.49;99963.47;5040543;28;20236;-58
2022/06/07 06:23:59;;;;;;;1.83;0.53;;;;;;;22.68;46.55;99959.13;5051353;28;20209;-58
2022/06/07 06:26:26;;;;;;;1.03;0.70;;;;;;;22.42;46.63;99964.56;5051861;28;20193;-58
2022/06/07 06:28:53;;;;;;;0.83;0.80;;;;;;;22.49;46.93;99963.75;5049817;28;20190;-59
2022/06/07 06:31:19;;;;;;;2.03;0.80;;;;;;;21.73;48.89;99965.59;5040992;28;20232;-59
2022/06/07 06:33:49;;;;;;;1.07;0.80;;;;;;;20.76;52.22;99965.78;5044538;28;20190;-59
2022/06/07 06:40:03;;;;;;;0.93;0.63;;;;;;;21.55;52.20;99968.31;5053729;28;20204;-58
2022/06/07 06:42:29;;;;;;;4.10;1.03;;;;;;;23.23;46.63;99956.72;5022250;28;20652;-59
2022/06/07 06:44:55;;;;;;;2.00;0.80;;;;;;;24.62;42.10;99957.63;5063880;28;20207;-58
2022/06/07 06:47:21;;;;;;;2.33;0.98;;;;;;;25.91;39.23;99961.72;5057750;28;20493;-60
2022/06/07 06:49:46;;;;;;;1.00;0.70;;;;;;;26.02;38.76;99964.84;5050962;28;20176;-59
2022/06/07 06:52:12;;;;;;;0.70;0.57;;;;;;;26.93;36.09;99965.97;5039496;28;20303;-59
2022/06/07 06:54:38;;;;;;;1.95;0.90;;;;;;;27.28;34.58;99966.78;5051273;28;20181;-60
2022/06/07 06:57:04;;;;;;;2.35;0.68;;;;;;;27.44;34.52;99970.94;5053491;28;20204;-59
2022/06/07 06:59:33;;;;;;;1.10;0.70;;;;;;;28.02;34.11;99973.09;5054898;28;20235;-59
2022/06/07 07:01:59;;;;;;;1.75;1.15;;;;;;;27.50;34.20;99974.59;5044203;28;20224;-59
2022/06/07 07:04:25;;;;;;;2.08;0.80;;;;;;;27.84;33.07;99972.88;5070252;28;20212;-60
2022/06/07 07:06:50;;;;;;;2.05;0.88;;;;;;;28.67;31.75;99966.41;5035657;28;20220;-59
2022/06/07 07:09:18;;;;;;;1.88;0.70;;;;;;;29.08;31.69;99965.28;5050880;28;20209;-58
2022/06/07 07:11:47;;;;;;;0.90;0.63;;;;;;;29.35;31.02;99962.56;5030573;28;20658;-58
2022/06/07 07:14:13;;;;;;;3.03;0.70;;;;;;;29.84;30.41;99965.56;5048589;28;20663;-59
2022/06/07 07:16:47;;;;;;;1.20;0.70;;;;;;;29.82;30.84;99964.16;5038931;28;20229;-58
2022/06/07 07:19:13;;;;;;;1.45;0.90;;;;;;;29.42;31.17;99962.53;5048913;28;20186;-59
2022/06/07 07:21:45;;;;;;;0.88;0.70;;;;;;;29.60;30.15;99964.50;5028864;28;20221;-59
2022/06/07 07:24:16;;;;;;;2.33;0.93;;;;;;;29.63;30.44;99964.88;5062819;28;20197;-60
2022/06/07 07:26:43;;;;;;;2.65;0.85;;;;;;;30.23;29.09;99960.22;5051334;28;20602;-60
2022/06/07 07:29:11;;;;;;;2.38;0.50;;;;;;;30.02;29.13;99956.06;5050682;28;20224;-57
2022/06/07 07:31:37;;;;;;;1.10;0.80;;;;;;;30.25;29.68;99953.66;5021282;28;20278;-59
2022/06/07 07:34:05;;;;;;;2.30;0.80;;;;;;;30.84;29.25;99955.97;5038723;28;20178;-59
2022/06/07 07:36:31;;;;;;;2.72;0.65;;;;;;;29.36;30.35;99953.63;5030686;28;20185;-58
2022/06/07 07:38:56;;;;;;;1.80;0.80;;;;;;;29.75;30.92;99951.75;5042030;28;20202;-58
2022/06/07 07:41:26;;;;;;;2.17;0.77;;;;;;;28.69;31.28;99950.34;5044280;28;20291;-58
2022/06/07 07:43:53;;;;;;;4.68;0.80;;;;;;;30.81;29.41;99950.28;5048394;28;20207;-58
2022/06/07 07:46:20;;;;;;;2.88;0.88;;;;;;;31.11;29.28;99950.38;5049698;28;20277;-57
2022/06/07 07:48:46;;;;;;;2.10;0.70;;;;;;;31.60;28.64;99949.53;5033523;28;20273;-59
2022/06/07 07:51:23;;;;;;;2.17;0.70;;;;;;;31.56;24.71;99949.19;5037392;28;20237;-59
2022/06/07 07:53:50;;;;;;;2.70;0.73;;;;;;;30.78;26.15;99950.75;5053437;28;20199;-59
2022/06/07 07:56:16;;;;;;;1.95;0.63;;;;;;;30.78;25.35;99951.53;5063812;28;20189;-59
2022/06/07 07:58:41;;;;;;;2.53;0.65;;;;;;;31.54;24.81;99945.94;5049582;28;20252;-58
2022/06/07 08:01:12;;;;;;;2.03;0.80;;;;;;;32.22;24.62;99959.88;5037513;28;20240;-59
2022/06/07 08:03:39;;;;;;;0.65;0.50;;;;;;;32.08;25.55;99956.59;5053654;28;20281;-59
2022/06/07 08:06:06;;;;;;;1.27;0.70;;;;;;;32.79;25.17;99943.31;5053919;28;20184;-58
2022/06/07 08:08:31;;;;;;;1.48;0.80;;;;;;;31.53;26.39;99941.66;5054550;28;20170;-59
2022/06/07 08:10:56;;;;;;;2.55;0.65;;;;;;;32.15;25.58;99938.69;5043722;28;20715;-58
2022/06/07 08:13:22;;;;;;;1.52;0.85;;;;;;;32.66;25.59;99944.34;5037936;28;20181;-58
2022/06/07 08:15:47;;;;;;;1.98;0.57;;;;;;;33.34;23.96;99951.84;5054209;28;20189;-59
2022/06/07 08:18:12;;;;;;;2.65;0.98;;;;;;;34.00;23.80;99945.25;5062980;28;20228;-62
2022/06/07 08:20:38;;;;;;;1.67;0.73;;;;;;;34.44;22.04;99945.41;5054381;28;20212;-60
2022/06/07 08:23:05;;;;;;;0.73;0.47;;;;;;;33.84;23.33;99942.34;5071009;28;20491;-59
2022/06/07 08:25:32;;;;;;;3.15;0.70;;;;;;;32.08;24.99;99939.81;5044905;28;20226;-59
2022/06/07 08:27:58;;;;;;;1.08;0.60;;;;;;;33.13;22.85;99939.97;5033981;28;20178;-59
2022/06/07 08:30:24;;;;;;;2.05;0.80;;;;;;;33.62;22.85;99944.88;5037102;28;20266;-60
2022/06/07 08:32:49;;;;;;;1.35;0.65;;;;;;;33.75;23.84;99938.44;5061364;28;20582;-59
2022/06/07 08:38:01;;;;;;;1.45;0.70;;;;;;;33.03;24.30;99937.91;5073373;28;20196;-58
2022/06/07 08:40:43;;;;;;;1.17;0.70;;;;;;;31.34;25.01;99936.38;5062179;28;20722;-60
2022/06/07 08:43:26;;;;;;;2.40;0.90;;;;;;;29.72;26.86;99951.34;5071230;28;20530;-59
2022/06/07 08:45:53;;;;;;;3.97;0.68;;;;;;;28.69;28.54;99939.75;5053715;28;20176;-59
2022/06/07 08:48:25;;;;;;;2.30;0.98;;;;;;;29.24;27.51;99942.03;5042251;28;20193;-59
2022/06/07 08:51:18;;;;;;;2.22;0.80;;;;;;;30.59;26.36;99934.81;5011796;28;20220;-59
2022/06/07 08:53:53;;;;;;;2.38;0.60;;;;;;;30.32;26.70;99937.69;5039129;28;20205;-59
2022/06/07 08:56:32;;;;;;;0.85;0.60;;;;;;;28.37;28.10;99935.09;5053764;28;20188;-60
2022/06/07 08:59:05;;;;;;;0.77;0.65;;;;;;;30.19;25.89;99933.31;5053914;28;20177;-59
2022/06/07 09:01:48;;;;;;;2.15;0.82;;;;;;;32.38;24.42;99928.31;5035456;28;20225;-59
2022/06/07 09:04:30;;;;;;;2.55;0.65;;;;;;;31.55;24.93;99927.09;5073345;28;20484;-59
2022/06/07 09:07:03;;;;;;;1.58;0.65;;;;;;;31.77;24.18;99926.59;5063734;28;20691;-59
2022/06/07 09:12:28;;;;;;;3.97;1.10;;;;;;;32.05;22.82;99914.47;5061455;28;20314;-57
2022/06/07 09:15:03;;;;;;;1.15;0.80;;;;;;;31.35;24.46;99916.75;5055273;28;20177;-58
2022/06/07 09:17:31;;;;;;;1.27;0.50;;;;;;;31.78;24.87;99906.97;5050771;28;20340;-58
2022/06/07 09:19:58;;;;;;;1.40;0.95;;;;;;;32.96;23.36;99910.63;5054080;28;20185;-59
2022/06/07 09:22:37;;;;;;;5.10;0.80;;;;;;;34.04;23.08;99915.19;5045719;28;20247;-60
2022/06/07 09:25:21;;;;;;;1.98;0.68;;;;;;;34.80;21.70;99913.00;5066445;28;20193;-59
2022/06/07 09:27:47;;;;;;;2.22;0.82;;;;;;;34.96;20.81;99912.13;5050948;28;20276;-59
2022/06/07 09:30:15;;;;;;;1.20;0.70;;;;;;;36.13;20.68;99918.78;5041298;28;20272;-60
2022/06/07 09:32:41;;;;;;;0.93;0.63;;;;;;;31.92;24.27;99906.75;5030216;28;20172;-59
2022/06/07 09:35:18;;;;;;;1.48;0.63;;;;;;;29.60;27.52;99906.19;5071701;28;20177;-58
2022/06/07 09:37:49;;;;;;;1.13;0.60;;;;;;;28.69;28.37;99906.19;5049020;28;20187;-58
2022/06/07 09:40:33;;;;;;;1.25;0.68;;;;;;;27.92;30.40;99906.59;5031811;28;20647;-60
2022/06/07 09:43:11;;;;;;;2.25;0.70;;;;;;;27.12;30.47;99901.91;5066433;28;20182;-59
2022/06/07 09:45:38;;;;;;;2.08;0.90;;;;;;;26.99;31.04;99899.22;5036269;28;20632;-59
2022/06/07 09:48:25;;;;;;;0.77;0.60;;;;;;;25.79;33.15;99905.25;5050002;28;20510;-58
2022/06/07 09:50:57;;;;;;;1.42;0.70;;;;;;;25.12;34.02;99894.78;5041616;28;20304;-59
2022/06/07 09:53:23;;;;;;;3.30;0.80;;;;;;;24.88;34.00;99898.56;5051859;28;20188;-59
2022/06/07 09:56:05;;;;;;;1.23;0.77;;;;;;;24.24;35.43;99901.66;5052627;28;20173;-60
2022/06/07 09:58:41;;;;;;;1.52;0.80;;;;;;;23.94;36.01;99893.66;5052165;28;20178;-59
2022/06/07 10:01:18;;;;;;;3.08;0.80;;;;;;;23.80;36.59;99889.97;5031773;28;20224;-58
2022/06/07 10:04:13;;;;;;;6.33;1.00;;;;;;;23.57;38.25;99889.94;5048043;28;20200;-57
2022/06/07 10:06:46;;;;;;;1.47;0.80;;;;;;;23.31;38.37;99886.66;5054156;28;20169;-59
2022/06/07 10:09:35;;;;;;;1.10;0.73;;;;;;;23.21;37.33;99889.50;5058893;28;20260;-57
2022/06/07 10:12:09;;;;;;;6.03;1.00;;;;;;;23.13;37.35;99888.69;5060688;28;20332;-56
2022/06/07 10:15:12;;;;;;;2.47;1.10;;;;;;;22.97;38.10;99886.94;5057568;28;20184;-58
2022/06/07 10:17:54;;;;;;;0.80;0.50;;;;;;;23.31;38.02;99884.03;5045107;28;20212;-58
2022/06/07 10:20:38;;;;;;;0.60;0.60;;;;;;;23.82;37.24;99880.91;5039920;28;20602;-59
2022/06/07 10:23:09;;;;;;;1.33;0.83;;;;;;;24.39;36.42;99880.66;5050858;28;20661;-58
2022/06/07 10:26:02;;;;;;;0.97;0.80;;;;;;;25.05;35.74;99872.84;5050255;28;20201;-58
2022/06/07 10:29:01;;;;;;;5.10;1.20;;;;;;;25.24;34.33;99879.34;5050903;28;20186;-58
2022/06/07 10:31:41;;;;;;;1.27;1.00;;;;;;;25.50;34.93;99879.84;5020169;28;20237;-60
2022/06/07 10:34:33;;;;;;;0.85;0.73;;;;;;;25.33;35.58;99874.78;5047749;28;20690;-58
2022/06/07 10:37:20;;;;;;;0.95;0.63;;;;;;;25.41;36.11;99879.16;5051290;28;20169;-58
2022/06/07 10:40:14;;;;;;;5.18;1.00;;;;;;;25.00;37.56;99869.16;5050991;28;20455;-59
2022/06/07 10:42:57;;;;;;;1.55;1.10;;;;;;;24.84;36.64;99870.97;5023745;28;20209;-58
2022/06/07 10:45:27;;;;;;;1.38;0.95;;;;;;;24.73;36.02;99868.78;5032121;28;20213;-59
2022/06/07 10:48:03;;;;;;;3.13;1.10;;;;;;;24.77;36.94;99868.25;5050948;28;20251;-57
2022/06/07 10:50:37;;;;;;;1.85;0.70;;;;;;;24.94;37.36;99862.78;5038676;28;20225;-58
2022/06/07 10:53:14;;;;;;;3.30;0.93;;;;;;;25.76;37.10;99866.94;5037654;28;20176;-58
2022/06/07 10:55:46;;;;;;;2.58;1.10;;;;;;;26.45;35.32;99861.19;5051042;28;20181;-59
2022/06/07 10:58:45;;;;;;;3.13;0.95;;;;;;;26.41;35.11;99855.50;5051311;28;20200;-58
2022/06/07 11:01:16;;;;;;;3.10;0.82;;;;;;;26.42;35.08;99854.47;5026290;28;20217;-57
2022/06/07 11:04:09;;;;;;;2.33;1.42;;;;;;;26.11;35.52;99850.44;5023896;28;20277;-59
2022/06/07 11:09:50;;;;;;;3.47;1.35;;;;;;;25.38;35.77;99854.00;5031661;28;20185;-59
2022/06/07 11:12:22;;;;;;;1.80;0.98;;;;;;;25.92;36.20;99842.16;5019605;28;20735;-59
2022/06/07 11:15:13;;;;;;;1.65;0.80;;;;;;;25.93;35.22;99849.03;5049930;28;20177;-60
2022/06/07 11:17:46;;;;;;;4.15;0.80;;;;;;;26.39;33.60;99836.41;5026535;28;20237;-59
2022/06/07 11:20:13;;;;;;;1.63;0.82;;;;;;;26.70;33.83;99837.78;5044870;28;20232;-59
2022/06/07 11:23:05;;;;;;;4.97;0.98;;;;;;;26.83;33.49;99835.22;5038978;28;20185;-59
2022/06/07 11:25:33;;;;;;;2.78;0.73;;;;;;;26.38;33.58;99840.88;5054493;28;20209;-59
2022/06/07 11:28:06;;;;;;;3.75;0.73;;;;;;;26.37;34.54;99833.13;5053112;28;20735;-59
2022/06/07 11:30:36;;;;;;;6.82;1.25;;;;;;;26.24;34.28;99826.78;5021532;28;20236;-59
2022/06/07 11:33:02;;;;;;;2.83;1.33;;;;;;;26.80;32.75;99830.34;5044827;28;20180;-58
2022/06/07 11:35:45;;;;;;;1.05;0.80;;;;;;;26.31;34.68;99824.19;5053022;28;20295;-60
2022/06/07 11:38:16;;;;;;;1.20;0.77;;;;;;;27.18;32.97;99824.56;5053972;28;20629;-59
2022/06/07 11:40:42;;;;;;;2.35;0.50;;;;;;;27.43;31.77;99828.50;5049221;28;20229;-60
2022/06/07 11:43:45;;;;;;;1.80;0.73;;;;;;;26.64;31.43;99818.25;5053320;28;20178;-60
2022/06/07 11:46:22;;;;;;;1.08;0.70;;;;;;;26.79;31.40;99819.97;5051366;28;20705;-59
2022/06/07 11:48:47;;;;;;;2.45;0.80;;;;;;;26.99;32.23;99809.50;5053456;28;20194;-60
2022/06/07 11:51:15;;;;;;;1.65;0.80;;;;;;;27.10;31.96;99813.38;5046523;28;20694;-60
2022/06/07 11:54:10;;;;;;;1.55;0.90;;;;;;;27.32;33.38;99811.41;5053463;28;20169;-58
2022/06/07 11:56:44;;;;;;;2.65;0.70;;;;;;;27.03;31.98;99802.81;5042333;28;20181;-58
2022/06/07 11:59:18;;;;;;;1.48;0.68;;;;;;;26.93;32.72;99808.47;5054228;28;20332;-60
2022/06/07 12:02:06;;;;;;;3.22;0.90;;;;;;;26.85;33.04;99801.53;5043020;28;20232;-59
2022/06/07 12:04:41;;;;;;;1.70;0.80;;;;;;;27.03;32.57;99805.47;5047053;28;20263;-59
2022/06/07 12:07:32;;;;;;;3.40;0.80;;;;;;;27.10;32.98;99803.63;5054026;28;20177;-58
2022/06/07 12:10:19;;;;;;;1.40;0.75;;;;;;;27.31;34.51;99807.94;5054508;28;20182;-59